Time,TemperatureF,DewpointF,PressureIn,WindDirection,WindDirectionDegrees,WindSpeedMPH,WindSpeedGustMPH,Humidity,HourlyPrecipIn,Conditions,Clouds,dailyrainin,SoftwareType,DateUTC
2013-03-16 00:00:00,51.7,34.2,29.78,SW,234,0.0,4.0,51,0.00,,---,0.00,VWS V14.01,2013-03-16 04:00:00,
2013-03-16 00:02:00,51.7,34.2,29.78,SW,234,0.0,0.0,51,0.00,,---,0.00,VWS V14.01,2013-03-16 04:02:00,
2013-03-16 00:04:00,51.7,34.2,29.78,SW,234,0.0,0.0,51,0.00,,---,0.00,VWS V14.01,2013-03-16 04:04:00,
2013-03-16 00:06:00,51.6,34.1,29.78,SW,234,0.0,0.0,51,0.00,,---,0.00,VWS V14.01,2013-03-16 04:06:00,
2013-03-16 00:08:00,51.6,34.1,29.78,SW,234,0.0,0.0,51,0.00,,---,0.00,VWS V14.01,2013-03-16 04:08:00,
2013-03-16 00:10:00,51.6,34.1,29.78,SW,234,0.0,0.0,51,0.00,,---,0.00,VWS V14.01,2013-03-16 04:10:00,
2013-03-16 00:12:00,51.4,33.9,29.78,SW,234,0.0,2.0,51,0.00,,---,0.00,VWS V14.01,2013-03-16 04:12:00,
2013-03-16 00:14:00,51.4,33.9,29.77,SW,234,0.0,2.0,51,0.00,,---,0.00,VWS V14.01,2013-03-16 04:14:00,
2013-03-16 00:15:00,51.4,34.4,29.77,SW,234,0.0,2.0,52,0.00,,---,0.00,VWS V14.01,2013-03-16 04:15:00,
2013-03-16 00:16:00,51.4,33.9,29.77,SW,234,2.0,2.0,51,0.00,,---,0.00,VWS V14.01,2013-03-16 04:16:00,
2013-03-16 00:18:00,51.4,33.9,29.77,SW,234,0.0,2.0,51,0.00,,---,0.00,VWS V14.01,2013-03-16 04:18:00,
2013-03-16 00:20:00,51.4,33.9,29.77,SW,234,0.0,2.0,51,0.00,,---,0.00,VWS V14.01,2013-03-16 04:20:00,
2013-03-16 00:22:00,51.3,33.8,29.77,SW,234,0.0,2.0,51,0.00,,---,0.00,VWS V14.01,2013-03-16 04:22:00,
2013-03-16 00:24:00,51.3,34.3,29.77,SW,234,0.0,2.0,52,0.00,,---,0.00,VWS V14.01,2013-03-16 04:24:00,
2013-03-16 00:26:00,51.1,34.1,29.77,SW,234,0.0,2.0,52,0.00,,---,0.00,VWS V14.01,2013-03-16 04:26:00,
2013-03-16 00:28:00,51.0,34.5,29.77,SW,234,0.0,2.0,53,0.00,,---,0.00,VWS V14.01,2013-03-16 04:28:00,
2013-03-16 00:30:00,50.8,34.3,29.77,SW,234,0.0,2.0,53,0.00,,---,0.00,VWS V14.01,2013-03-16 04:30:00,
2013-03-16 00:32:00,50.7,34.2,29.77,SW,234,0.0,0.0,53,0.00,,---,0.00,VWS V14.01,2013-03-16 04:32:00,
2013-03-16 00:34:00,50.5,34.5,29.77,SW,234,0.0,0.0,54,0.00,,---,0.00,VWS V14.01,2013-03-16 04:34:00,
2013-03-16 00:36:00,50.1,34.6,29.77,SW,234,0.0,0.0,55,0.00,,---,0.00,VWS V14.01,2013-03-16 04:36:00,
2013-03-16 00:38:00,49.8,34.3,29.77,SW,234,0.0,0.0,55,0.00,,---,0.00,VWS V14.01,2013-03-16 04:38:00,
2013-03-16 00:40:00,49.5,34.0,29.77,SW,234,0.0,0.0,55,0.00,,---,0.00,VWS V14.01,2013-03-16 04:40:00,
2013-03-16 00:44:00,48.8,34.3,29.77,SW,234,0.0,0.0,57,0.00,,---,0.00,VWS V14.01,2013-03-16 04:44:00,
2013-03-16 00:45:00,48.6,34.1,29.77,SW,234,0.0,0.0,57,0.00,,---,0.00,VWS V14.01,2013-03-16 04:45:00,
2013-03-16 00:46:00,48.2,34.1,29.77,SW,234,0.0,0.0,58,0.00,,---,0.00,VWS V14.01,2013-03-16 04:46:00,
2013-03-16 00:50:00,47.0,33.8,29.77,SW,234,0.0,0.0,60,0.00,,---,0.00,VWS V14.01,2013-03-16 04:50:00,
2013-03-16 00:54:00,46.2,33.9,29.77,SW,234,0.0,0.0,62,0.00,,---,0.00,VWS V14.01,2013-03-16 04:54:00,
2013-03-16 00:56:00,46.0,33.7,29.77,SW,234,0.0,0.0,62,0.00,,---,0.00,VWS V14.01,2013-03-16 04:56:00,
2013-03-16 01:00:00,45.7,33.8,29.77,SW,234,0.0,0.0,63,0.00,,---,0.00,VWS V14.01,2013-03-16 05:00:00,
2013-03-16 01:01:00,45.5,33.7,29.77,SW,234,0.0,0.0,63,0.00,,---,0.00,VWS V14.01,2013-03-16 05:01:00,
2013-03-16 01:03:00,45.4,33.6,29.77,SW,234,0.0,1.0,63,0.00,,---,0.00,VWS V14.01,2013-03-16 05:03:00,
2013-03-16 01:07:00,45.1,33.3,29.77,SW,234,0.0,1.0,63,0.00,,---,0.00,VWS V14.01,2013-03-16 05:07:00,
2013-03-16 01:13:00,44.9,33.9,29.77,South,169,0.0,3.0,65,0.00,,---,0.00,VWS V14.01,2013-03-16 05:13:00,
2013-03-16 01:15:00,44.9,33.9,29.77,South,169,0.0,3.0,65,0.00,,---,0.00,VWS V14.01,2013-03-16 05:15:00,
2013-03-16 01:19:00,44.8,33.8,29.77,South,169,0.0,0.0,65,0.00,,---,0.00,VWS V14.01,2013-03-16 05:19:00,
2013-03-16 01:21:00,44.8,33.8,29.77,South,169,0.0,0.0,65,0.00,,---,0.00,VWS V14.01,2013-03-16 05:21:00,
2013-03-16 01:23:00,44.8,34.2,29.77,South,169,0.0,0.0,66,0.00,,---,0.00,VWS V14.01,2013-03-16 05:23:00,
2013-03-16 01:29:00,46.1,34.2,29.76,SW,223,0.0,1.0,63,0.00,,---,0.00,VWS V14.01,2013-03-16 05:29:00,
2013-03-16 01:31:00,46.7,34.0,29.76,SW,223,0.0,0.0,61,0.00,,---,0.00,VWS V14.01,2013-03-16 05:31:00,
2013-03-16 01:33:00,47.0,34.3,29.76,SW,223,0.0,0.0,61,0.00,,---,0.00,VWS V14.01,2013-03-16 05:33:00,
2013-03-16 01:37:00,46.8,34.1,29.76,SW,223,0.0,0.0,61,0.00,,---,0.00,VWS V14.01,2013-03-16 05:37:00,
2013-03-16 01:39:00,46.7,34.4,29.76,SW,223,0.0,0.0,62,0.00,,---,0.00,VWS V14.01,2013-03-16 05:39:00,
2013-03-16 01:41:00,46.4,33.7,29.76,SW,223,0.0,0.0,61,0.00,,---,0.00,VWS V14.01,2013-03-16 05:41:00,
2013-03-16 01:45:00,49.1,33.7,29.77,SW,234,0.0,0.0,55,0.00,,---,0.00,VWS V14.01,2013-03-16 05:45:00,
2013-03-16 01:51:00,47.7,34.1,29.77,SW,234,0.0,0.0,59,0.00,,---,0.00,VWS V14.01,2013-03-16 05:51:00,
2013-03-16 02:01:00,45.7,33.8,29.77,SW,234,0.0,0.0,63,0.00,,---,0.00,VWS V14.01,2013-03-16 06:01:00,
2013-03-16 02:07:00,45.2,33.4,29.77,SW,234,0.0,1.0,63,0.00,,---,0.00,VWS V14.01,2013-03-16 06:07:00,
2013-03-16 02:13:00,44.9,33.9,29.77,South,169,2.0,3.0,65,0.00,,---,0.00,VWS V14.01,2013-03-16 06:13:00,
2013-03-16 02:19:00,44.8,33.8,29.77,South,169,0.0,0.0,65,0.00,,---,0.00,VWS V14.01,2013-03-16 06:19:00,
2013-03-16 02:27:00,45.1,34.0,29.77,SW,223,0.0,1.0,65,0.00,,---,0.00,VWS V14.01,2013-03-16 06:27:00,
2013-03-16 02:37:00,47.0,34.7,29.76,SW,223,0.0,0.0,62,0.00,,---,0.00,VWS V14.01,2013-03-16 06:37:00,
2013-03-16 02:45:00,46.2,33.5,29.76,SW,223,0.0,0.0,61,0.00,,---,0.00,VWS V14.01,2013-03-16 06:45:00,
2013-03-16 02:51:00,45.4,33.2,29.76,SW,223,0.0,0.0,62,0.00,,---,0.00,VWS V14.01,2013-03-16 06:51:00,
2013-03-16 02:57:00,44.8,33.4,29.76,SW,223,1.0,1.0,64,0.00,,---,0.00,VWS V14.01,2013-03-16 06:57:00,
2013-03-16 03:03:00,44.2,33.2,29.76,SW,223,1.0,2.0,65,0.00,,---,0.00,VWS V14.01,2013-03-16 07:03:00,
2013-03-16 03:09:00,43.6,33.0,29.76,SW,223,0.0,2.0,66,0.00,,---,0.00,VWS V14.01,2013-03-16 07:09:00,
2013-03-16 03:15:00,43.2,33.0,29.76,SW,223,0.0,2.0,67,0.00,,---,0.00,VWS V14.01,2013-03-16 07:15:00,
2013-03-16 03:21:00,42.9,32.7,29.75,SW,223,0.0,0.0,67,0.00,,---,0.00,VWS V14.01,2013-03-16 07:21:00,
2013-03-16 03:27:00,42.5,33.1,29.75,SW,223,0.0,0.0,69,0.00,,---,0.00,VWS V14.01,2013-03-16 07:27:00,
2013-03-16 03:33:00,42.2,32.8,29.75,SW,223,0.0,0.0,69,0.00,,---,0.00,VWS V14.01,2013-03-16 07:33:00,
2013-03-16 03:39:00,42.1,33.0,29.75,SW,223,0.0,0.0,70,0.00,,---,0.00,VWS V14.01,2013-03-16 07:39:00,
2013-03-16 03:46:00,41.9,32.8,29.75,SW,223,0.0,0.0,70,0.00,,---,0.00,VWS V14.01,2013-03-16 07:46:00,
2013-03-16 03:52:00,41.8,32.8,29.74,SW,223,0.0,0.0,70,0.00,,---,0.00,VWS V14.01,2013-03-16 07:52:00,
2013-03-16 03:58:00,41.5,32.8,29.74,SW,223,0.0,0.0,71,0.00,,---,0.00,VWS V14.01,2013-03-16 07:58:00,
2013-03-16 04:04:00,41.1,32.8,29.74,SW,223,0.0,0.0,72,0.00,,---,0.00,VWS V14.01,2013-03-16 08:04:00,
2013-03-16 04:10:00,40.9,32.9,29.74,South,188,1.0,1.0,73,0.00,,---,0.00,VWS V14.01,2013-03-16 08:10:00,
2013-03-16 04:16:00,40.9,32.9,29.74,South,188,0.0,2.0,73,0.00,,---,0.00,VWS V14.01,2013-03-16 08:16:00,
2013-03-16 04:22:00,40.9,33.3,29.73,South,188,0.0,0.0,74,0.00,,---,0.00,VWS V14.01,2013-03-16 08:22:00,
2013-03-16 04:28:00,40.6,33.0,29.73,South,188,0.0,0.0,74,0.00,,---,0.00,VWS V14.01,2013-03-16 08:28:00,
2013-03-16 04:34:00,40.5,33.2,29.73,South,188,0.0,0.0,75,0.00,,---,0.00,VWS V14.01,2013-03-16 08:34:00,
2013-03-16 04:40:00,40.3,33.0,29.73,South,188,0.0,0.0,75,0.00,,---,0.00,VWS V14.01,2013-03-16 08:40:00,
2013-03-16 04:46:00,40.3,33.3,29.72,South,188,0.0,0.0,76,0.00,,---,0.00,VWS V14.01,2013-03-16 08:46:00,
2013-03-16 04:52:00,40.1,33.2,29.72,South,188,0.0,0.0,76,0.00,,---,0.00,VWS V14.01,2013-03-16 08:52:00,
2013-03-16 04:58:00,40.1,33.2,29.72,South,188,0.0,1.0,76,0.00,,---,0.00,VWS V14.01,2013-03-16 08:58:00,
2013-03-16 05:04:00,39.8,32.9,29.72,South,188,0.0,0.0,76,0.00,,---,0.00,VWS V14.01,2013-03-16 09:04:00,
2013-03-16 05:10:00,39.5,32.9,29.72,South,188,0.0,0.0,77,0.00,,---,0.00,VWS V14.01,2013-03-16 09:10:00,
2013-03-16 05:16:00,39.3,32.7,29.72,South,188,0.0,0.0,77,0.00,,---,0.00,VWS V14.01,2013-03-16 09:16:00,
2013-03-16 05:22:00,39.2,32.9,29.72,South,188,0.0,0.0,78,0.00,,---,0.00,VWS V14.01,2013-03-16 09:22:00,
2013-03-16 05:28:00,39.1,32.8,29.72,South,188,0.0,0.0,78,0.00,,---,0.00,VWS V14.01,2013-03-16 09:28:00,
2013-03-16 05:34:00,39.1,32.8,29.73,South,188,0.0,1.0,78,0.00,,---,0.00,VWS V14.01,2013-03-16 09:34:00,
2013-03-16 05:40:00,39.2,32.9,29.73,South,188,0.0,1.0,78,0.00,,---,0.00,VWS V14.01,2013-03-16 09:40:00,
2013-03-16 05:46:00,39.2,32.9,29.73,South,188,0.0,1.0,78,0.00,,---,0.00,VWS V14.01,2013-03-16 09:46:00,
2013-03-16 05:52:00,39.1,32.8,29.73,South,188,0.0,0.0,78,0.00,,---,0.00,VWS V14.01,2013-03-16 09:52:00,
2013-03-16 05:58:00,38.6,32.7,29.73,South,188,1.0,1.0,79,0.00,,---,0.00,VWS V14.01,2013-03-16 09:58:00,
2013-03-16 06:05:00,38.8,33.2,29.73,South,175,0.0,0.0,80,0.00,,---,0.00,VWS V14.01,2013-03-16 10:05:00,
2013-03-16 06:11:00,38.8,32.9,29.73,South,190,0.0,0.0,79,0.00,,---,0.00,VWS V14.01,2013-03-16 10:11:00,
2013-03-16 06:17:00,38.6,33.0,29.73,South,190,0.0,0.0,80,0.00,,---,0.00,VWS V14.01,2013-03-16 10:17:00,
2013-03-16 06:23:00,38.8,33.5,29.73,South,190,0.0,1.0,81,0.00,,---,0.00,VWS V14.01,2013-03-16 10:23:00,
2013-03-16 06:29:00,39.8,34.1,29.73,South,184,0.0,2.0,80,0.00,,---,0.00,VWS V14.01,2013-03-16 10:29:00,
2013-03-16 06:35:00,40.9,34.6,29.72,South,182,2.0,2.0,78,0.00,,---,0.00,VWS V14.01,2013-03-16 10:35:00,
2013-03-16 06:41:00,41.8,34.5,29.72,South,182,0.0,2.0,75,0.00,,---,0.00,VWS V14.01,2013-03-16 10:41:00,
2013-03-16 06:47:00,40.3,33.3,29.73,South,182,0.0,2.0,76,0.00,,---,0.00,VWS V14.01,2013-03-16 10:47:00,
2013-03-16 06:53:00,39.3,33.0,29.73,South,182,0.0,0.0,78,0.00,,---,0.00,VWS V14.01,2013-03-16 10:53:00,
2013-03-16 06:59:00,38.8,32.9,29.73,South,182,0.0,0.0,79,0.00,,---,0.00,VWS V14.01,2013-03-16 10:59:00,
2013-03-16 07:05:00,38.6,32.7,29.73,South,182,0.0,0.0,79,0.00,,---,0.00,VWS V14.01,2013-03-16 11:05:00,
2013-03-16 07:11:00,38.6,33.0,29.73,South,182,0.0,0.0,80,0.00,,---,0.00,VWS V14.01,2013-03-16 11:11:00,
2013-03-16 07:17:00,38.9,33.6,29.73,South,182,0.0,0.0,81,0.00,,---,0.00,VWS V14.01,2013-03-16 11:17:00,
2013-03-16 07:23:00,38.8,33.5,29.73,South,182,0.0,0.0,81,0.00,,---,0.00,VWS V14.01,2013-03-16 11:23:00,
2013-03-16 07:29:00,38.5,33.2,29.73,South,182,0.0,0.0,81,0.00,,---,0.00,VWS V14.01,2013-03-16 11:29:00,
2013-03-16 07:35:00,38.3,33.0,29.75,South,182,0.0,0.0,81,0.00,,---,0.00,VWS V14.01,2013-03-16 11:35:00,
2013-03-16 07:41:00,38.8,34.1,29.75,South,182,0.0,2.0,83,0.00,,---,0.00,VWS V14.01,2013-03-16 11:41:00,
2013-03-16 07:47:00,39.5,34.2,29.74,South,182,0.0,2.0,81,0.00,,---,0.00,VWS V14.01,2013-03-16 11:47:00,
2013-03-16 07:54:00,39.6,34.0,29.74,South,182,0.0,0.0,80,0.00,,---,0.00,VWS V14.01,2013-03-16 11:54:00,
2013-03-16 08:00:00,39.5,33.8,29.74,South,182,0.0,0.0,80,0.00,,---,0.00,VWS V14.01,2013-03-16 12:00:00,
2013-03-16 08:06:00,39.3,34.0,29.75,South,182,0.0,0.0,81,0.00,,---,0.00,VWS V14.01,2013-03-16 12:06:00,
2013-03-16 08:12:00,39.5,34.5,29.75,South,182,0.0,1.0,82,0.00,,---,0.00,VWS V14.01,2013-03-16 12:12:00,
2013-03-16 08:17:00,39.9,34.9,29.74,South,182,0.0,2.0,82,0.00,,---,0.00,VWS V14.01,2013-03-16 12:17:00,
2013-03-16 08:24:00,40.5,34.8,29.74,South,182,0.0,0.0,80,0.00,,---,0.00,VWS V14.01,2013-03-16 12:24:00,
2013-03-16 08:30:00,40.9,34.9,29.74,South,182,0.0,0.0,79,0.00,,---,0.00,VWS V14.01,2013-03-16 12:30:00,
2013-03-16 08:36:00,41.3,35.3,29.74,South,191,0.0,3.0,79,0.00,,---,0.00,VWS V14.01,2013-03-16 12:36:00,
2013-03-16 08:42:00,41.9,35.9,29.74,SSW,192,0.0,3.0,79,0.00,,---,0.00,VWS V14.01,2013-03-16 12:42:00,
2013-03-16 08:48:00,42.6,36.5,29.74,SE,143,0.0,2.0,79,0.00,,---,0.00,VWS V14.01,2013-03-16 12:48:00,
2013-03-16 08:54:00,43.1,36.7,29.74,NE,51,0.0,3.0,78,0.00,,---,0.00,VWS V14.01,2013-03-16 12:54:00,
2013-03-16 09:00:00,43.6,36.9,29.74,SSE,147,1.0,3.0,77,0.00,,---,0.00,VWS V14.01,2013-03-16 13:00:00,
2013-03-16 09:06:00,44.6,37.2,29.73,SSE,147,2.0,2.0,75,0.00,,---,0.00,VWS V14.01,2013-03-16 13:06:00,
2013-03-16 09:12:00,45.5,37.4,29.73,SSE,147,0.0,2.0,73,0.00,,---,0.00,VWS V14.01,2013-03-16 13:12:00,
2013-03-16 09:18:00,46.1,37.6,29.73,SSE,147,0.0,0.0,72,0.00,,---,0.00,VWS V14.01,2013-03-16 13:18:00,
2013-03-16 09:24:00,46.7,38.2,29.73,SSE,147,0.0,2.0,72,0.00,,---,0.00,VWS V14.01,2013-03-16 13:24:00,
2013-03-16 09:31:00,47.3,38.4,29.73,SSE,147,0.0,2.0,71,0.00,,---,0.00,VWS V14.01,2013-03-16 13:31:00,
2013-03-16 09:37:00,47.9,39.0,29.73,SSE,147,0.0,1.0,71,0.00,,---,0.00,VWS V14.01,2013-03-16 13:37:00,
2013-03-16 09:43:00,48.9,39.6,29.73,SSE,147,0.0,2.0,70,0.00,,---,0.00,VWS V14.01,2013-03-16 13:43:00,
2013-03-16 09:49:00,50.8,40.2,29.72,SSW,203,1.0,3.0,67,0.00,,---,0.00,VWS V14.01,2013-03-16 13:49:00,
2013-03-16 09:55:00,52.8,41.0,29.72,SW,219,3.0,3.0,64,0.00,,---,0.00,VWS V14.01,2013-03-16 13:55:00,
2013-03-16 10:01:00,55.0,41.8,29.72,SSW,202,1.0,5.0,61,0.00,,---,0.00,VWS V14.01,2013-03-16 14:01:00,
2013-03-16 10:07:00,56.6,42.0,29.71,SSW,198,2.0,6.0,58,0.00,,---,0.00,VWS V14.01,2013-03-16 14:07:00,
2013-03-16 10:13:00,57.6,42.5,29.71,SE,136,0.0,6.0,57,0.00,,---,0.00,VWS V14.01,2013-03-16 14:13:00,
2013-03-16 10:19:00,58.4,42.3,29.70,South,176,0.0,2.0,55,0.00,,---,0.00,VWS V14.01,2013-03-16 14:19:00,
2013-03-16 10:25:00,58.6,42.5,29.70,SE,146,2.0,3.0,55,0.00,,---,0.00,VWS V14.01,2013-03-16 14:25:00,
2013-03-16 10:31:00,58.7,42.6,29.69,South,172,2.0,3.0,55,0.00,,---,0.00,VWS V14.01,2013-03-16 14:31:00,
2013-03-16 10:37:00,58.9,42.3,29.69,WSW,251,0.0,6.0,54,0.00,,---,0.00,VWS V14.01,2013-03-16 14:37:00,
2013-03-16 10:43:00,59.3,42.2,29.69,SSW,197,0.0,6.0,53,0.00,,---,0.00,VWS V14.01,2013-03-16 14:43:00,
2013-03-16 10:49:00,59.8,42.7,29.69,SW,226,1.0,4.0,53,0.00,,---,0.00,VWS V14.01,2013-03-16 14:49:00,
2013-03-16 10:55:00,60.1,42.4,29.69,SSE,160,0.0,6.0,52,0.00,,---,0.00,VWS V14.01,2013-03-16 14:55:00,
2013-03-16 11:01:00,61.0,43.8,29.68,SSW,201,2.0,6.0,53,0.00,,---,0.00,VWS V14.01,2013-03-16 15:01:00,
2013-03-16 11:07:00,62.1,42.7,29.68,South,186,0.0,7.0,49,0.00,,---,0.00,VWS V14.01,2013-03-16 15:07:00,
2013-03-16 11:13:00,63.2,43.2,29.68,SW,236,2.0,7.0,48,0.00,,---,0.00,VWS V14.01,2013-03-16 15:13:00,
2013-03-16 11:20:00,64.3,43.1,29.67,WSW,251,5.0,6.0,46,0.00,,---,0.00,VWS V14.01,2013-03-16 15:20:00,
2013-03-16 11:26:00,65.0,43.7,29.67,SW,223,7.0,9.0,46,0.00,,---,0.00,VWS V14.01,2013-03-16 15:26:00,
2013-03-16 11:32:00,65.6,43.7,29.66,WSW,252,7.0,10.0,45,0.00,,---,0.00,VWS V14.01,2013-03-16 15:32:00,
2013-03-16 11:38:00,66.6,43.4,29.66,SSE,157,2.0,9.0,43,0.00,,---,0.00,VWS V14.01,2013-03-16 15:38:00,
2013-03-16 11:44:00,67.8,43.3,29.66,West,275,0.0,9.0,41,0.00,,---,0.00,VWS V14.01,2013-03-16 15:44:00,
2013-03-16 11:50:00,68.8,44.2,29.65,SW,232,6.0,6.0,41,0.00,,---,0.00,VWS V14.01,2013-03-16 15:50:00,
2013-03-16 11:56:00,68.9,42.3,29.65,West,271,2.0,18.0,38,0.00,,---,0.00,VWS V14.01,2013-03-16 15:56:00,
2013-03-16 12:02:00,69.4,43.4,29.64,SW,234,11.0,18.0,39,0.00,,---,0.00,VWS V14.01,2013-03-16 16:02:00,
2013-03-16 12:08:00,69.6,42.9,29.64,SW,221,5.0,11.0,38,0.00,,---,0.00,VWS V14.01,2013-03-16 16:08:00,
2013-03-16 12:14:00,69.8,43.1,29.64,SW,224,5.0,11.0,38,0.00,,---,0.00,VWS V14.01,2013-03-16 16:14:00,
2013-03-16 12:20:00,70.4,44.3,29.64,SSE,148,5.0,11.0,39,0.00,,---,0.00,VWS V14.01,2013-03-16 16:20:00,
2013-03-16 12:26:00,70.3,43.5,29.64,SW,231,4.0,11.0,38,0.00,,---,0.00,VWS V14.01,2013-03-16 16:26:00,
2013-03-16 12:32:00,70.6,44.5,29.63,WSW,239,5.0,11.0,39,0.00,,---,0.00,VWS V14.01,2013-03-16 16:32:00,
2013-03-16 12:38:00,71.1,42.8,29.63,SW,214,3.0,13.0,36,0.00,,---,0.00,VWS V14.01,2013-03-16 16:38:00,
2013-03-16 12:44:00,71.6,43.3,29.63,WSW,243,7.0,14.0,36,0.00,,---,0.00,VWS V14.01,2013-03-16 16:44:00,
2013-03-16 12:50:00,72.5,44.1,29.62,SW,224,4.0,11.0,36,0.00,,---,0.00,VWS V14.01,2013-03-16 16:50:00,
2013-03-16 12:57:00,72.7,42.7,29.62,SW,217,5.0,11.0,34,0.00,,---,0.00,VWS V14.01,2013-03-16 16:57:00,
2013-03-16 13:02:00,73.0,43.0,29.62,WSW,238,12.0,14.0,34,0.00,,---,0.00,VWS V14.01,2013-03-16 17:02:00,
2013-03-16 13:09:00,73.3,43.3,29.62,SW,224,5.0,13.0,34,0.00,,---,0.00,VWS V14.01,2013-03-16 17:09:00,
2013-03-16 13:15:00,73.7,43.6,29.62,NW,310,4.0,13.0,34,0.00,,---,0.00,VWS V14.01,2013-03-16 17:15:00,
2013-03-16 13:21:00,73.9,43.0,29.62,WSW,255,7.0,11.0,33,0.00,,---,0.00,VWS V14.01,2013-03-16 17:21:00,
2013-03-16 13:27:00,74.4,43.5,29.62,West,277,9.0,13.0,33,0.00,,---,0.00,VWS V14.01,2013-03-16 17:27:00,
2013-03-16 13:32:00,74.7,43.7,29.61,West,281,2.0,13.0,33,0.00,,---,0.00,VWS V14.01,2013-03-16 17:32:00,
2013-03-16 13:39:00,75.1,44.1,29.61,SSW,210,4.0,9.0,33,0.00,,---,0.00,VWS V14.01,2013-03-16 17:39:00,
2013-03-16 13:45:00,75.3,41.8,29.61,SSW,207,5.0,10.0,30,0.00,,---,0.00,VWS V14.01,2013-03-16 17:45:00,
2013-03-16 13:51:00,75.8,43.0,29.61,SW,228,8.0,8.0,31,0.00,,---,0.00,VWS V14.01,2013-03-16 17:51:00,
2013-03-16 13:57:00,75.4,42.7,29.61,SW,226,8.0,11.0,31,0.00,,---,0.00,VWS V14.01,2013-03-16 17:57:00,
2013-03-16 14:03:00,75.1,44.1,29.60,WSW,249,7.0,11.0,33,0.00,,---,0.00,VWS V14.01,2013-03-16 18:03:00,
2013-03-16 14:09:00,74.7,42.1,29.60,SW,214,9.0,12.0,31,0.00,,---,0.00,VWS V14.01,2013-03-16 18:09:00,
2013-03-16 14:16:00,74.6,43.6,29.60,SSE,161,4.0,12.0,33,0.00,,---,0.00,VWS V14.01,2013-03-16 18:16:00,
2013-03-16 14:22:00,74.7,42.9,29.60,SE,126,0.0,6.0,32,0.00,,---,0.00,VWS V14.01,2013-03-16 18:22:00,
2013-03-16 14:28:00,74.7,42.1,29.60,SW,218,4.0,11.0,31,0.00,,---,0.00,VWS V14.01,2013-03-16 18:28:00,
2013-03-16 14:34:00,75.3,43.4,29.59,SSW,194,6.0,11.0,32,0.00,,---,0.00,VWS V14.01,2013-03-16 18:34:00,
2013-03-16 14:40:00,75.4,42.7,29.59,WSW,239,12.0,12.0,31,0.00,,---,0.00,VWS V14.01,2013-03-16 18:40:00,
2013-03-16 14:46:00,75.1,43.3,29.59,SSW,201,4.0,12.0,32,0.00,,---,0.00,VWS V14.01,2013-03-16 18:46:00,
2013-03-16 14:52:00,75.1,43.3,29.59,SSW,201,3.0,16.0,32,0.00,,---,0.00,VWS V14.01,2013-03-16 18:52:00,
2013-03-16 14:58:00,75.8,44.7,29.59,SW,226,8.0,16.0,33,0.00,,---,0.00,VWS V14.01,2013-03-16 18:58:00,
2013-03-16 15:04:00,76.0,42.4,29.58,SE,141,6.0,11.0,30,0.00,,---,0.00,VWS V14.01,2013-03-16 19:04:00,
2013-03-16 15:10:00,76.1,42.5,29.58,SW,223,4.0,11.0,30,0.00,,---,0.00,VWS V14.01,2013-03-16 19:10:00,
2013-03-16 15:16:00,76.5,43.7,29.57,WSW,252,6.0,13.0,31,0.00,,---,0.00,VWS V14.01,2013-03-16 19:16:00,
2013-03-16 15:22:00,76.5,41.9,29.57,SSW,200,4.0,15.0,29,0.00,,---,0.00,VWS V14.01,2013-03-16 19:22:00,
2013-03-16 15:29:00,76.5,42.8,29.57,SW,230,11.0,15.0,30,0.00,,---,0.00,VWS V14.01,2013-03-16 19:29:00,
2013-03-16 15:35:00,76.3,42.6,29.57,WSW,240,12.0,19.0,30,0.00,,---,0.00,VWS V14.01,2013-03-16 19:35:00,
2013-03-16 15:41:00,76.0,42.4,29.57,SSW,205,10.0,19.0,30,0.00,,---,0.00,VWS V14.01,2013-03-16 19:41:00,
2013-03-16 15:47:00,75.8,42.2,29.57,SSW,204,11.0,19.0,30,0.00,,---,0.00,VWS V14.01,2013-03-16 19:47:00,
2013-03-16 15:53:00,76.0,43.2,29.57,SSW,192,6.0,14.0,31,0.00,,---,0.00,VWS V14.01,2013-03-16 19:53:00,
2013-03-16 15:59:00,75.8,42.2,29.57,SSW,202,6.0,14.0,30,0.00,,---,0.00,VWS V14.01,2013-03-16 19:59:00,
2013-03-16 16:05:00,75.6,42.9,29.57,SW,217,4.0,6.0,31,0.00,,---,0.00,VWS V14.01,2013-03-16 20:05:00,
2013-03-16 16:11:00,75.6,42.0,29.57,SW,221,5.0,10.0,30,0.00,,---,0.00,VWS V14.01,2013-03-16 20:11:00,
2013-03-16 16:17:00,76.1,43.3,29.56,SW,234,4.0,10.0,31,0.00,,---,0.00,VWS V14.01,2013-03-16 20:17:00,
2013-03-16 16:23:00,77.2,41.6,29.56,SW,233,4.0,15.0,28,0.00,,---,0.00,VWS V14.01,2013-03-16 20:23:00,
2013-03-16 16:29:00,77.7,43.8,29.56,SE,127,5.0,15.0,30,0.00,,---,0.00,VWS V14.01,2013-03-16 20:29:00,
2013-03-16 16:35:00,77.7,42.0,29.54,SW,224,9.0,15.0,28,0.00,,---,0.00,VWS V14.01,2013-03-16 20:35:00,
2013-03-16 16:42:00,77.7,42.9,29.54,SW,226,6.0,15.0,29,0.00,,---,0.00,VWS V14.01,2013-03-16 20:42:00,
2013-03-16 16:47:00,77.6,42.9,29.54,SW,219,5.0,16.0,29,0.00,,---,0.00,VWS V14.01,2013-03-16 20:47:00,
2013-03-16 16:54:00,77.6,42.9,29.54,SW,228,7.0,15.0,29,0.00,,---,0.00,VWS V14.01,2013-03-16 20:54:00,
2013-03-16 17:00:00,77.7,43.8,29.54,SSW,204,3.0,15.0,30,0.00,,---,0.00,VWS V14.01,2013-03-16 21:00:00,
2013-03-16 17:06:00,77.9,41.3,29.53,SW,224,4.0,13.0,27,0.00,,---,0.00,VWS V14.01,2013-03-16 21:06:00,
2013-03-16 17:12:00,77.7,42.0,29.53,West,269,10.0,16.0,28,0.00,,---,0.00,VWS V14.01,2013-03-16 21:12:00,
2013-03-16 17:17:00,77.6,42.0,29.53,SSW,201,7.0,16.0,28,0.00,,---,0.00,VWS V14.01,2013-03-16 21:17:00,
2013-03-16 17:24:00,77.4,42.7,29.53,SSW,203,6.0,15.0,29,0.00,,---,0.00,VWS V14.01,2013-03-16 21:24:00,
2013-03-16 17:30:00,77.4,42.7,29.53,WSW,250,7.0,15.0,29,0.00,,---,0.00,VWS V14.01,2013-03-16 21:30:00,
2013-03-16 17:36:00,77.2,41.6,29.54,SSW,212,5.0,7.0,28,0.00,,---,0.00,VWS V14.01,2013-03-16 21:36:00,
2013-03-16 17:42:00,77.0,41.4,29.54,SSW,203,6.0,17.0,28,0.00,,---,0.00,VWS V14.01,2013-03-16 21:42:00,
2013-03-16 17:48:00,77.0,42.3,29.54,WSW,240,6.0,7.0,29,0.00,,---,0.00,VWS V14.01,2013-03-16 21:48:00,
2013-03-16 17:54:00,77.0,41.4,29.54,SW,229,9.0,12.0,28,0.00,,---,0.00,VWS V14.01,2013-03-16 21:54:00,
2013-03-16 18:00:00,76.8,42.2,29.54,SW,217,4.0,13.0,29,0.00,,---,0.00,VWS V14.01,2013-03-16 22:00:00,
2013-03-16 18:07:00,76.7,42.1,29.56,WSW,237,4.0,10.0,29,0.00,,---,0.00,VWS V14.01,2013-03-16 22:07:00,
2013-03-16 18:13:00,76.5,41.9,29.56,NNW,331,6.0,11.0,29,0.00,,---,0.00,VWS V14.01,2013-03-16 22:13:00,
2013-03-16 18:19:00,76.3,41.7,29.56,West,276,5.0,12.0,29,0.00,,---,0.00,VWS V14.01,2013-03-16 22:19:00,
2013-03-16 18:25:00,76.1,41.6,29.56,SW,236,6.0,12.0,29,0.00,,---,0.00,VWS V14.01,2013-03-16 22:25:00,
2013-03-16 18:31:00,75.1,45.6,29.56,NW,309,14.0,14.0,35,0.00,,---,0.00,VWS V14.01,2013-03-16 22:31:00,
2013-03-16 18:37:00,70.1,50.1,29.61,NW,307,6.0,28.0,49,0.01,,---,0.01,VWS V14.01,2013-03-16 22:37:00,
2013-03-16 18:43:00,65.2,54.0,29.61,NW,318,10.0,28.0,67,0.02,,---,0.02,VWS V14.01,2013-03-16 22:43:00,
2013-03-16 18:49:00,63.9,53.5,29.65,NW,321,5.0,12.0,69,0.02,,---,0.02,VWS V14.01,2013-03-16 22:49:00,
2013-03-16 18:55:00,63.5,53.5,29.65,NW,326,4.0,14.0,70,0.02,,---,0.02,VWS V14.01,2013-03-16 22:55:00,
2013-03-16 19:01:00,63.9,52.7,29.65,NW,321,5.0,15.0,67,0.02,,---,0.02,VWS V14.01,2013-03-16 23:01:00,
2013-03-16 19:07:00,64.2,51.8,29.65,NNW,330,5.0,19.0,64,0.02,,---,0.02,VWS V14.01,2013-03-16 23:07:00,
2013-03-16 19:13:00,64.5,51.6,29.65,WNW,302,7.0,19.0,63,0.02,,---,0.02,VWS V14.01,2013-03-16 23:13:00,
2013-03-16 19:19:00,64.7,51.8,29.65,NW,306,7.0,12.0,63,0.02,,---,0.02,VWS V14.01,2013-03-16 23:19:00,
2013-03-16 19:25:00,64.5,52.1,29.65,NNW,333,5.0,14.0,64,0.02,,---,0.02,VWS V14.01,2013-03-16 23:25:00,
2013-03-16 19:31:00,64.2,51.8,29.67,WNW,292,3.0,14.0,64,0.02,,---,0.02,VWS V14.01,2013-03-16 23:31:00,
2013-03-16 19:37:00,64.3,51.5,29.67,NW,320,4.0,13.0,63,0.02,,---,0.02,VWS V14.01,2013-03-16 23:37:00,
2013-03-16 19:44:00,64.5,51.2,29.67,NW,304,4.0,14.0,62,0.02,,---,0.02,VWS V14.01,2013-03-16 23:44:00,
2013-03-16 19:50:00,64.5,51.2,29.67,NW,316,3.0,10.0,62,0.00,,---,0.02,VWS V14.01,2013-03-16 23:50:00,
2013-03-16 19:56:00,64.5,50.8,29.67,WNW,301,4.0,10.0,61,0.00,,---,0.02,VWS V14.01,2013-03-16 23:56:00,
2013-03-16 20:02:00,64.5,51.2,29.68,NW,315,3.0,10.0,62,0.00,,---,0.02,VWS V14.01,2013-03-17 00:02:00,
2013-03-16 20:08:00,64.2,50.9,29.68,NW,307,4.0,7.0,62,0.00,,---,0.02,VWS V14.01,2013-03-17 00:08:00,
2013-03-16 20:14:00,64.2,50.5,29.68,NW,319,1.0,7.0,61,0.00,,---,0.02,VWS V14.01,2013-03-17 00:14:00,
2013-03-16 20:20:00,64.2,50.9,29.69,NW,319,5.0,5.0,62,0.00,,---,0.02,VWS V14.01,2013-03-17 00:20:00,
2013-03-16 20:26:00,64.0,50.3,29.69,West,274,3.0,5.0,61,0.00,,---,0.02,VWS V14.01,2013-03-17 00:26:00,
2013-03-16 20:32:00,63.9,50.6,29.70,WNW,282,1.0,5.0,62,0.00,,---,0.02,VWS V14.01,2013-03-17 00:32:00,
2013-03-16 20:38:00,63.7,50.5,29.70,WNW,290,1.0,2.0,62,0.00,,---,0.02,VWS V14.01,2013-03-17 00:38:00,
2013-03-16 20:44:00,63.2,50.4,29.70,WNW,290,0.0,4.0,63,0.00,,---,0.02,VWS V14.01,2013-03-17 00:44:00,
2013-03-16 20:50:00,62.9,50.5,29.71,WNW,290,0.0,0.0,64,0.00,,---,0.02,VWS V14.01,2013-03-17 00:50:00,
2013-03-16 20:57:00,62.4,50.5,29.71,WNW,290,0.0,0.0,65,0.00,,---,0.02,VWS V14.01,2013-03-17 00:57:00,
2013-03-16 21:02:00,62.3,50.4,29.71,WNW,290,0.0,1.0,65,0.00,,---,0.02,VWS V14.01,2013-03-17 01:02:00,
2013-03-16 21:09:00,62.1,49.8,29.71,WNW,290,0.0,1.0,64,0.00,,---,0.02,VWS V14.01,2013-03-17 01:09:00,
2013-03-16 21:15:00,62.1,49.8,29.71,WNW,290,0.0,1.0,64,0.00,,---,0.02,VWS V14.01,2013-03-17 01:15:00,
2013-03-16 21:21:00,62.1,48.9,29.71,WNW,290,0.0,0.0,62,0.00,,---,0.02,VWS V14.01,2013-03-17 01:21:00,
2013-03-16 21:27:00,62.4,48.8,29.71,WNW,290,0.0,2.0,61,0.00,,---,0.02,VWS V14.01,2013-03-17 01:27:00,
2013-03-16 21:33:00,63.4,48.4,29.72,SW,236,0.0,2.0,58,0.00,,---,0.02,VWS V14.01,2013-03-17 01:33:00,
2013-03-16 21:39:00,64.0,48.5,29.72,West,261,0.0,4.0,57,0.00,,---,0.02,VWS V14.01,2013-03-17 01:39:00,
2013-03-16 21:45:00,63.9,48.4,29.72,West,269,0.0,4.0,57,0.00,,---,0.02,VWS V14.01,2013-03-17 01:45:00,
2013-03-16 21:51:00,63.7,48.2,29.72,WNW,287,1.0,3.0,57,0.00,,---,0.02,VWS V14.01,2013-03-17 01:51:00,
2013-03-16 21:57:00,63.9,47.9,29.72,West,269,2.0,7.0,56,0.00,,---,0.02,VWS V14.01,2013-03-17 01:57:00,
2013-03-16 22:03:00,64.3,48.3,29.72,WSW,252,2.0,4.0,56,0.00,,---,0.02,VWS V14.01,2013-03-17 02:03:00,
2013-03-16 22:09:00,64.5,48.0,29.72,West,261,0.0,4.0,55,0.00,,---,0.02,VWS V14.01,2013-03-17 02:09:00,
2013-03-16 22:16:00,64.5,48.5,29.72,West,263,2.0,4.0,56,0.00,,---,0.02,VWS V14.01,2013-03-17 02:16:00,
2013-03-16 22:22:00,64.7,48.2,29.72,WSW,253,2.0,6.0,55,0.00,,---,0.02,VWS V14.01,2013-03-17 02:22:00,
2013-03-16 22:28:00,64.7,48.2,29.72,NW,316,0.0,6.0,55,0.00,,---,0.02,VWS V14.01,2013-03-17 02:28:00,
2013-03-16 22:34:00,64.7,48.2,29.72,WNW,302,0.0,0.0,55,0.00,,---,0.02,VWS V14.01,2013-03-17 02:34:00,
2013-03-16 22:40:00,64.5,48.0,29.72,WNW,303,0.0,0.0,55,0.00,,---,0.02,VWS V14.01,2013-03-17 02:40:00,
2013-03-16 22:46:00,64.2,47.7,29.72,WNW,303,0.0,0.0,55,0.00,,---,0.02,VWS V14.01,2013-03-17 02:46:00,
2013-03-16 22:52:00,63.7,47.7,29.74,WNW,295,0.0,0.0,56,0.00,,---,0.02,VWS V14.01,2013-03-17 02:52:00,
2013-03-16 22:58:00,63.5,47.5,29.74,WSW,245,0.0,3.0,56,0.00,,---,0.02,VWS V14.01,2013-03-17 02:58:00,
2013-03-16 23:00:00,60.2,48.0,29.74,SSW,202,0.0,3.0,64,0.00,,---,0.02,VWS V14.01,2013-03-17 03:00:00,
2013-03-16 23:02:00,59.9,48.1,29.74,SSW,202,0.0,0.0,65,0.00,,---,0.02,VWS V14.01,2013-03-17 03:02:00,
2013-03-16 23:04:00,63.9,47.9,29.74,West,260,0.0,5.0,56,0.00,,---,0.02,VWS V14.01,2013-03-17 03:04:00,
2013-03-16 23:06:00,59.5,48.2,29.74,SSW,202,0.0,1.0,66,0.00,,---,0.02,VWS V14.01,2013-03-17 03:06:00,
2013-03-16 23:08:00,59.3,48.0,29.74,SSW,202,0.0,1.0,66,0.00,,---,0.02,VWS V14.01,2013-03-17 03:08:00,
2013-03-16 23:10:00,64.2,48.2,29.74,WSW,244,0.0,5.0,56,0.00,,---,0.02,VWS V14.01,2013-03-17 03:10:00,
2013-03-16 23:12:00,59.2,47.9,29.74,SSW,201,0.0,2.0,66,0.00,,---,0.02,VWS V14.01,2013-03-17 03:12:00,
2013-03-16 23:14:00,59.0,48.1,29.75,SSW,200,0.0,2.0,67,0.00,,---,0.02,VWS V14.01,2013-03-17 03:14:00,
2013-03-16 23:15:00,59.0,48.1,29.75,SSW,200,0.0,2.0,67,0.00,,---,0.02,VWS V14.01,2013-03-17 03:15:00,
2013-03-16 23:16:00,64.2,48.2,29.73,WSW,243,0.0,5.0,56,0.00,,---,0.02,VWS V14.01,2013-03-17 03:16:00,
2013-03-16 23:18:00,59.2,48.3,29.75,SSW,200,0.0,0.0,67,0.00,,---,0.02,VWS V14.01,2013-03-17 03:18:00,
2013-03-16 23:20:00,59.2,47.9,29.75,SSW,200,0.0,1.0,66,0.00,,---,0.02,VWS V14.01,2013-03-17 03:20:00,
2013-03-16 23:22:00,64.0,48.0,29.73,WSW,243,2.0,2.0,56,0.00,,---,0.02,VWS V14.01,2013-03-17 03:22:00,
2013-03-16 23:24:00,59.5,48.2,29.75,SSW,200,0.0,1.0,66,0.00,,---,0.02,VWS V14.01,2013-03-17 03:24:00,
2013-03-16 23:26:00,59.8,48.4,29.75,SSW,200,0.0,1.0,66,0.00,,---,0.02,VWS V14.01,2013-03-17 03:26:00,
2013-03-16 23:28:00,64.0,48.0,29.73,WSW,243,0.0,2.0,56,0.00,,---,0.02,VWS V14.01,2013-03-17 03:28:00,
2013-03-16 23:30:00,60.1,48.3,29.75,SSW,200,0.0,1.0,65,0.00,,---,0.02,VWS V14.01,2013-03-17 03:30:00,
2013-03-16 23:32:00,60.2,48.4,29.75,SSW,200,0.0,0.0,65,0.00,,---,0.02,VWS V14.01,2013-03-17 03:32:00,
2013-03-16 23:34:00,63.9,47.9,29.73,WSW,243,0.0,0.0,56,0.00,,---,0.02,VWS V14.01,2013-03-17 03:34:00,
2013-03-16 23:36:00,60.4,48.6,29.75,SSW,200,0.0,0.0,65,0.00,,---,0.02,VWS V14.01,2013-03-17 03:36:00,
2013-03-16 23:38:00,60.2,48.4,29.75,SSW,200,0.0,0.0,65,0.00,,---,0.02,VWS V14.01,2013-03-17 03:38:00,
2013-03-16 23:40:00,63.7,48.2,29.73,WSW,243,0.0,0.0,57,0.00,,---,0.02,VWS V14.01,2013-03-17 03:40:00,
2013-03-16 23:42:00,59.8,48.4,29.75,SSW,200,0.0,0.0,66,0.00,,---,0.02,VWS V14.01,2013-03-17 03:42:00,
2013-03-16 23:44:00,59.5,48.2,29.76,SSW,200,0.0,0.0,66,0.00,,---,0.02,VWS V14.01,2013-03-17 03:44:00,
2013-03-16 23:45:00,59.5,48.2,29.76,SSW,200,0.0,0.0,66,0.00,,---,0.02,VWS V14.01,2013-03-17 03:45:00,
2013-03-16 23:46:00,62.7,48.6,29.74,WSW,243,0.0,2.0,60,0.00,,---,0.02,VWS V14.01,2013-03-17 03:46:00,
2013-03-16 23:48:00,58.9,48.0,29.76,SSW,200,0.0,0.0,67,0.00,,---,0.02,VWS V14.01,2013-03-17 03:48:00,
2013-03-16 23:51:00,58.7,48.2,29.76,SSW,200,0.0,0.0,68,0.00,,---,0.02,VWS V14.01,2013-03-17 03:51:00,
2013-03-16 23:52:00,61.5,48.4,29.74,WSW,243,0.0,0.0,62,0.00,,---,0.02,VWS V14.01,2013-03-17 03:52:00,
2013-03-16 23:53:00,58.4,47.9,29.76,SSW,200,0.0,0.0,68,0.00,,---,0.02,VWS V14.01,2013-03-17 03:53:00,
2013-03-16 23:55:00,58.3,48.2,29.76,SSW,200,0.0,0.0,69,0.00,,---,0.02,VWS V14.01,2013-03-17 03:55:00,
2013-03-16 23:57:00,58.1,48.0,29.76,SSW,200,0.0,0.0,69,0.00,,---,0.02,VWS V14.01,2013-03-17 03:57:00,
2013-03-16 23:58:00,60.5,47.9,29.74,SSW,202,1.0,3.0,63,0.00,,---,0.02,VWS V14.01,2013-03-17 03:58:00,
2013-03-16 23:59:00,58.0,47.9,29.76,SSW,200,0.0,0.0,69,0.00,,---,0.02,VWS V14.01,2013-03-17 03:59:00,